Time;durP1;ratioP1;P1;durP2;ratioP2;P2;SDS_P1;SDS_P2;PMS_P1;PMS_P2;Temp;Humidity;BMP_temperature;BMP_pressure;BME280_temperature;BME280_humidity;BME280_pressure;Samples;Min_cycle;Max_cycle;Signal;HPM_P1;HPM_P2
2022/12/30 00:02:21;;;;;;;;;;;;;;;21.27;50.63;95168.91;4989921;28;7555;-69
2022/12/30 00:04:47;;;;;;;;;;;;;;;21.24;50.63;95167.81;4964841;28;10775;-68
2022/12/30 00:07:14;;;;;;;;;;;;;;;21.24;50.69;95180.91;4981769;28;7613;-67
2022/12/30 00:09:41;;;;;;;;;;;;;;;21.22;50.66;95181.31;4988427;28;9421;-67
2022/12/30 00:34:23;;;;;;;;;;;;;;;21.18;50.50;95167.56;4986867;28;7531;-68
2022/12/30 00:36:50;;;;;;;;;;;;;;;21.20;50.25;95177.44;4990365;28;7554;-68
2022/12/30 00:39:17;;;;;;;;;;;;;;;21.18;50.32;95173.09;4987278;28;7588;-68
2022/12/30 00:44:28;;;;;;;;;;;;;;;21.16;50.18;95170.00;4986073;28;7618;-68
2022/12/30 00:46:56;;;;;;;;;;;;;;;21.18;50.10;95177.88;4987494;28;7558;-68
2022/12/30 00:57:38;;;;;;;;;;;;;;;21.17;49.70;95171.56;4987416;28;11247;-68
2022/12/30 01:00:06;;;;;;;;;;;;;;;21.15;49.70;95160.16;4990140;28;7597;-69
2022/12/30 01:02:33;;;;;;;;;;;;;;;21.18;49.60;95164.78;4988923;28;7566;-69
2022/12/30 01:05:00;;;;;;;;;;;;;;;21.15;49.85;95164.91;4987956;28;9010;-69
2022/12/30 01:07:27;;;;;;;;;;;;;;;21.14;49.74;95169.69;4988950;28;10243;-69
2022/12/30 01:09:54;;;;;;;;;;;;;;;21.14;49.75;95166.91;4954688;28;7566;-69
2022/12/30 01:12:28;;;;;;;;;;;;;;;21.16;49.57;95164.44;4987487;28;7523;-68
2022/12/30 01:14:58;;;;;;;;;;;;;;;21.17;49.76;95168.00;4991493;28;8218;-68
2022/12/30 01:17:30;;;;;;;;;;;;;;;21.15;49.67;95162.13;4989819;28;7570;-69
2022/12/30 01:20:00;;;;;;;;;;;;;;;21.16;49.68;95166.47;4990616;28;10381;-68
2022/12/30 01:22:29;;;;;;;;;;;;;;;21.15;49.68;95157.38;4990749;28;7546;-69
2022/12/30 01:24:56;;;;;;;;;;;;;;;21.16;49.66;95156.13;4988640;28;7556;-69
2022/12/30 01:27:24;;;;;;;;;;;;;;;21.16;49.68;95153.34;4989314;28;10926;-69
2022/12/30 01:29:56;;;;;;;;;;;;;;;21.14;49.59;95152.25;4988268;28;10177;-68
2022/12/30 01:32:23;;;;;;;;;;;;;;;21.16;49.57;95152.59;4989172;28;8039;-68
2022/12/30 01:34:54;;;;;;;;;;;;;;;21.15;49.72;95156.59;4991459;28;10159;-68
2022/12/30 01:37:21;;;;;;;;;;;;;;;21.14;49.61;95158.59;5009955;28;7558;-68
2022/12/30 01:39:53;;;;;;;;;;;;;;;21.16;49.40;95156.13;5007635;28;7555;-68
2022/12/30 01:42:22;;;;;;;;;;;;;;;21.13;49.54;95145.94;4991421;28;8643;-68
2022/12/30 01:44:49;;;;;;;;;;;;;;;21.13;49.39;95147.91;4991543;28;7554;-67
2022/12/30 01:47:18;;;;;;;;;;;;;;;21.14;49.35;95144.72;5007281;28;9306;-68
2022/12/30 01:49:46;;;;;;;;;;;;;;;21.13;49.25;95143.16;5005517;28;7527;-68
2022/12/30 01:52:16;;;;;;;;;;;;;;;21.11;49.17;95153.91;5008228;28;7527;-68
2022/12/30 01:54:43;;;;;;;;;;;;;;;21.13;49.13;95154.25;5003831;28;7987;-68
2022/12/30 01:57:10;;;;;;;;;;;;;;;21.13;49.06;95147.91;5006163;28;7530;-68
2022/12/30 01:59:37;;;;;;;;;;;;;;;21.12;49.12;95152.69;5008303;28;7651;-68
2022/12/30 02:02:04;;;;;;;;;;;;;;;21.12;48.99;95147.16;5007392;28;7538;-68
2022/12/30 02:04:33;;;;;;;;;;;;;;;21.11;49.10;95148.38;5008243;28;7573;-68
2022/12/30 02:06:59;;;;;;;;;;;;;;;21.12;48.96;95154.69;5008442;28;7539;-68
2022/12/30 02:09:27;;;;;;;;;;;;;;;21.12;48.92;95147.16;5007901;28;9460;-68
2022/12/30 02:11:54;;;;;;;;;;;;;;;21.13;48.98;95156.25;4989688;28;10120;-68
2022/12/30 02:14:22;;;;;;;;;;;;;;;21.13;48.85;95157.03;4988089;28;10896;-68
2022/12/30 02:17:01;;;;;;;;;;;;;;;21.11;48.87;95155.91;5006748;28;7555;-68
2022/12/30 02:19:28;;;;;;;;;;;;;;;21.13;48.85;95153.47;5008180;28;7551;-68
2022/12/30 02:22:11;;;;;;;;;;;;;;;21.07;48.83;95158.78;5006553;28;7562;-68
2022/12/30 02:24:50;;;;;;;;;;;;;;;21.10;48.82;95168.22;5005894;28;10278;-68
2022/12/30 02:27:26;;;;;;;;;;;;;;;21.10;48.92;95176.53;5003701;28;7561;-68
2022/12/30 02:30:01;;;;;;;;;;;;;;;21.09;48.68;95163.91;5006862;28;7539;-68
2022/12/30 02:32:47;;;;;;;;;;;;;;;21.09;48.63;95166.66;5004073;28;10776;-68
2022/12/30 02:35:38;;;;;;;;;;;;;;;21.09;48.75;95174.97;5004617;28;10342;-68
2022/12/30 02:38:23;;;;;;;;;;;;;;;21.13;48.66;95178.41;5006356;28;8824;-68
2022/12/30 02:47:21;;;;;;;;;;;;;;;21.09;49.03;95177.75;5006770;28;7570;-67
2022/12/30 02:52:14;;;;;;;;;;;;;;;21.11;49.25;95161.47;4997387;28;7999;-67
2022/12/30 02:52:38;;;;;;;;;;;;;;;21.09;49.16;95159.13;5004701;28;7554;-68
2022/12/30 02:55:05;;;;;;;;;;;;;;;21.07;49.30;95158.78;5006525;28;7605;-68
2022/12/30 02:57:33;;;;;;;;;;;;;;;21.08;49.28;95163.09;5005767;28;7550;-68
2022/12/30 03:05:53;;;;;;;;;;;;;;;21.13;49.01;95159.00;5002944;28;7543;-68
2022/12/30 03:08:33;;;;;;;;;;;;;;;21.11;49.06;95165.00;5003842;28;7523;-67
2022/12/30 03:11:16;;;;;;;;;;;;;;;21.12;49.01;95160.22;5006171;28;7555;-68
2022/12/30 03:13:57;;;;;;;;;;;;;;;21.10;49.21;95166.22;5006244;28;7980;-68
2022/12/30 03:16:35;;;;;;;;;;;;;;;21.08;49.31;95168.66;5005609;28;7589;-68
2022/12/30 03:19:04;;;;;;;;;;;;;;;21.09;49.27;95163.91;5005118;28;7987;-68
2022/12/30 03:21:33;;;;;;;;;;;;;;;21.11;49.06;95159.47;5003839;28;7650;-68
2022/12/30 03:27:05;;;;;;;;;;;;;;;21.11;49.01;95151.16;5006038;28;9588;-68
2022/12/30 03:29:50;;;;;;;;;;;;;;;21.09;48.97;95150.03;5005191;28;7555;-68
2022/12/30 03:32:18;;;;;;;;;;;;;;;21.09;48.94;95142.47;5005674;28;7527;-68
2022/12/30 03:34:46;;;;;;;;;;;;;;;21.08;48.87;95146.47;4988231;28;7553;-68
2022/12/30 03:37:28;;;;;;;;;;;;;;;21.07;48.88;95142.16;5008100;28;7575;-68
2022/12/30 03:39:58;;;;;;;;;;;;;;;21.12;48.77;95151.91;5005950;28;10164;-68
2022/12/30 03:42:25;;;;;;;;;;;;;;;21.10;48.94;95149.59;5008600;28;10367;-67
2022/12/30 03:44:52;;;;;;;;;;;;;;;21.09;48.83;95153.56;5009589;28;10720;-68
2022/12/30 03:47:19;;;;;;;;;;;;;;;21.09;48.83;95152.81;5008680;28;7551;-67
2022/12/30 03:49:46;;;;;;;;;;;;;;;21.08;48.69;95165.88;5009855;28;10992;-68
2022/12/30 03:52:20;;;;;;;;;;;;;;;21.09;48.52;95147.25;5008158;28;7570;-68
2022/12/30 03:54:47;;;;;;;;;;;;;;;21.10;48.44;95154.38;5008080;28;7542;-68
2022/12/30 03:57:14;;;;;;;;;;;;;;;21.11;48.58;95164.25;5008536;28;7558;-68
2022/12/30 03:59:41;;;;;;;;;;;;;;;21.08;48.50;95154.78;5008893;28;7535;-68
2022/12/30 04:02:08;;;;;;;;;;;;;;;21.09;48.35;95158.34;5008981;28;7995;-68
2022/12/30 04:04:35;;;;;;;;;;;;;;;21.08;48.25;95163.09;5010439;28;7550;-68
2022/12/30 04:07:03;;;;;;;;;;;;;;;21.06;48.15;95157.25;5009569;28;7645;-68
2022/12/30 04:09:30;;;;;;;;;;;;;;;21.06;48.40;95162.78;5007181;28;7833;-68
2022/12/30 04:11:56;;;;;;;;;;;;;;;21.06;48.37;95156.44;5006921;28;7549;-68
2022/12/30 04:14:23;;;;;;;;;;;;;;;21.08;48.33;95143.69;5008152;28;7554;-68
2022/12/30 04:16:50;;;;;;;;;;;;;;;21.08;48.07;95137.41;5008828;28;9580;-68
2022/12/30 04:19:16;;;;;;;;;;;;;;;21.07;48.22;95136.59;5009736;28;8100;-68
2022/12/30 04:21:43;;;;;;;;;;;;;;;21.10;48.18;95140.50;5008128;28;8007;-68
2022/12/30 04:24:10;;;;;;;;;;;;;;;21.06;48.14;95137.84;5005501;28;7594;-68
2022/12/30 04:26:36;;;;;;;;;;;;;;;21.07;48.28;95141.38;5008507;28;7559;-68
2022/12/30 04:29:03;;;;;;;;;;;;;;;21.05;48.35;95144.59;5007373;28;7582;-68
2022/12/30 04:31:30;;;;;;;;;;;;;;;21.04;48.37;95140.28;5010002;28;7539;-67
2022/12/30 04:33:56;;;;;;;;;;;;;;;21.04;48.41;95140.28;5007842;28;7611;-68
2022/12/30 04:36:32;;;;;;;;;;;;;;;21.02;48.37;95137.94;5008147;28;10452;-68
2022/12/30 04:38:59;;;;;;;;;;;;;;;21.04;48.41;95143.03;5007285;28;7543;-68
2022/12/30 04:41:26;;;;;;;;;;;;;;;21.03;48.42;95152.56;5006358;28;7543;-68
2022/12/30 04:43:53;;;;;;;;;;;;;;;21.05;48.37;95149.34;5008466;28;7594;-68
2022/12/30 04:46:19;;;;;;;;;;;;;;;21.05;48.11;95152.13;5006079;28;7656;-67
2022/12/30 04:48:46;;;;;;;;;;;;;;;21.00;48.40;95157.00;4990446;28;7535;-68
2022/12/30 04:51:21;;;;;;;;;;;;;;;21.02;48.17;95156.56;5005662;28;7589;-67
2022/12/30 04:53:48;;;;;;;;;;;;;;;21.03;48.26;95144.25;5007642;28;7568;-68
2022/12/30 04:56:15;;;;;;;;;;;;;;;21.02;48.18;95145.47;5006894;28;8960;-68
2022/12/30 04:58:48;;;;;;;;;;;;;;;21.07;48.11;95150.47;5007880;28;7602;-67
2022/12/30 05:01:15;;;;;;;;;;;;;;;21.08;48.20;95148.47;5008911;28;7554;-68
2022/12/30 05:03:42;;;;;;;;;;;;;;;21.06;48.12;95151.69;5010255;28;7551;-68
2022/12/30 05:06:08;;;;;;;;;;;;;;;21.03;48.24;95149.81;5007403;28;7554;-68
2022/12/30 05:08:35;;;;;;;;;;;;;;;21.02;48.29;95140.72;5007806;28;10219;-68
2022/12/30 05:11:02;;;;;;;;;;;;;;;21.03;48.08;95153.34;5007168;28;8140;-67
2022/12/30 05:13:29;;;;;;;;;;;;;;;20.99;48.38;95152.69;5006126;28;7634;-67
2022/12/30 05:15:55;;;;;;;;;;;;;;;21.03;48.25;95158.13;5007343;28;9958;-68
2022/12/30 05:18:22;;;;;;;;;;;;;;;20.99;48.39;95154.66;5006862;28;7553;-67
2022/12/30 05:20:49;;;;;;;;;;;;;;;21.03;48.37;95150.56;5007180;28;7558;-68
2022/12/30 05:26:16;;;;;;;;;;;;;;;21.06;48.27;95167.53;5006004;28;10542;-68
2022/12/30 05:28:44;;;;;;;;;;;;;;;21.07;48.16;95167.09;5007928;28;7535;-68
2022/12/30 05:31:11;;;;;;;;;;;;;;;21.03;48.17;95161.66;5007602;28;7561;-68
2022/12/30 05:33:38;;;;;;;;;;;;;;;21.02;48.09;95164.88;5006009;28;7960;-68
2022/12/30 05:36:05;;;;;;;;;;;;;;;21.03;47.96;95163.66;5007920;28;9680;-67
2022/12/30 05:38:32;;;;;;;;;;;;;;;21.06;47.94;95159.22;5007270;28;8811;-68
2022/12/30 05:40:58;;;;;;;;;;;;;;;21.05;47.87;95166.78;5006266;28;10615;-68
2022/12/30 05:43:34;;;;;;;;;;;;;;;20.99;48.08;95163.75;5008408;28;7593;-68
2022/12/30 05:46:02;;;;;;;;;;;;;;;21.02;48.10;95162.91;5006184;28;10484;-67
2022/12/30 05:48:28;;;;;;;;;;;;;;;21.02;47.99;95173.19;5007513;28;7531;-68
2022/12/30 05:50:55;;;;;;;;;;;;;;;21.01;47.79;95175.19;5005492;28;8071;-68
2022/12/30 05:53:22;;;;;;;;;;;;;;;21.03;47.79;95178.28;5007021;28;7944;-68
2022/12/30 05:55:48;;;;;;;;;;;;;;;21.00;47.97;95183.94;5007584;28;8493;-68
2022/12/30 05:58:15;;;;;;;;;;;;;;;21.01;47.78;95179.94;4981898;28;7558;-68
2022/12/30 06:00:42;;;;;;;;;;;;;;;20.99;47.85;95171.28;5006756;28;7807;-68
2022/12/30 06:03:09;;;;;;;;;;;;;;;21.02;47.67;95178.72;5004943;28;9432;-67
2022/12/30 06:05:35;;;;;;;;;;;;;;;20.96;48.06;95181.25;5006920;28;7538;-68
2022/12/30 06:08:02;;;;;;;;;;;;;;;20.98;48.04;95189.91;5006846;28;7562;-68
2022/12/30 06:10:29;;;;;;;;;;;;;;;20.95;48.06;95185.25;5008139;28;7543;-68
2022/12/30 06:12:56;;;;;;;;;;;;;;;20.96;47.86;95194.34;5004715;28;7608;-67
2022/12/30 06:15:22;;;;;;;;;;;;;;;20.97;48.01;95193.91;5006906;28;9781;-68
2022/12/30 06:17:49;;;;;;;;;;;;;;;20.98;47.68;95203.00;5004803;28;7542;-67
2022/12/30 06:20:16;;;;;;;;;;;;;;;20.97;47.98;95212.53;5006358;28;7539;-68
2022/12/30 06:22:43;;;;;;;;;;;;;;;20.94;48.11;95216.94;5007339;28;7550;-67
2022/12/30 06:25:09;;;;;;;;;;;;;;;20.95;47.71;95226.81;5006418;28;7550;-68
2022/12/30 06:27:37;;;;;;;;;;;;;;;20.95;47.90;95218.50;5006443;28;7732;-67
2022/12/30 06:30:03;;;;;;;;;;;;;;;20.94;47.82;95222.47;5005675;28;10179;-68
2022/12/30 06:32:31;;;;;;;;;;;;;;;20.96;47.85;95231.16;5006868;28;7554;-68
2022/12/30 06:34:58;;;;;;;;;;;;;;;20.91;47.98;95228.13;5004225;28;7547;-68
2022/12/30 06:37:27;;;;;;;;;;;;;;;20.89;48.30;95242.44;5007393;28;7534;-67
2022/12/30 06:39:54;;;;;;;;;;;;;;;20.89;48.20;95236.88;5006385;28;7565;-68
2022/12/30 06:42:20;;;;;;;;;;;;;;;20.95;48.04;95245.44;5007138;28;9508;-67
2022/12/30 06:44:47;;;;;;;;;;;;;;;20.94;47.90;95255.75;5007348;28;10275;-67
2022/12/30 06:47:14;;;;;;;;;;;;;;;20.94;47.73;95254.97;5005002;28;7569;-68
2022/12/30 06:49:40;;;;;;;;;;;;;;;20.95;47.78;95246.22;5006854;28;7541;-68
2022/12/30 06:52:07;;;;;;;;;;;;;;;20.94;47.76;95258.50;5006504;28;11072;-67
2022/12/30 06:54:34;;;;;;;;;;;;;;;20.94;47.73;95244.66;5006062;28;9746;-68
2022/12/30 06:57:00;;;;;;;;;;;;;;;20.92;47.78;95247.09;5006506;28;8729;-67
2022/12/30 06:59:27;;;;;;;;;;;;;;;20.94;47.53;95255.75;5006655;28;7535;-67
2022/12/30 07:01:54;;;;;;;;;;;;;;;20.94;47.75;95260.50;5007139;28;10179;-67
2022/12/30 07:04:21;;;;;;;;;;;;;;;20.95;47.73;95267.63;5006650;28;7550;-67
2022/12/30 07:06:47;;;;;;;;;;;;;;;20.94;47.80;95279.91;5005296;28;7531;-67
2022/12/30 07:09:14;;;;;;;;;;;;;;;20.95;47.74;95267.63;5005971;28;7626;-68
2022/12/30 07:11:40;;;;;;;;;;;;;;;20.95;47.60;95282.25;5008160;28;7523;-68
2022/12/30 07:14:07;;;;;;;;;67.00;57.25;;;;;20.97;47.54;95273.50;5009648;28;10738;-68
2022/12/30 07:16:34;;;;;;;;;65.00;55.50;;;;;20.95;47.52;95282.25;4993080;28;8847;-68
2022/12/30 07:19:01;;;;;;;;;67.25;56.50;;;;;20.96;47.45;95277.50;5007786;28;8836;-68
2022/12/30 07:21:28;;;;;;;;;60.00;53.00;;;;;20.93;47.54;95270.03;5007601;28;9321;-67
2022/12/30 07:23:55;;;;;;;;;62.20;53.60;;;;;20.94;47.48;95269.59;5004848;28;8866;-67
2022/12/30 07:26:22;;;;;;;;;64.50;55.50;;;;;20.94;47.22;95268.84;5008167;28;8862;-68
2022/12/30 07:28:48;;;;;;;;;68.75;58.75;;;;;20.92;47.48;95274.81;5007170;28;8841;-68
2022/12/30 07:31:19;;;;;;;;;66.25;56.50;;;;;20.93;47.35;95281.13;5008434;28;9273;-67
2022/12/30 07:33:46;;;;;;;;;61.00;53.00;;;;;20.91;47.47;95283.56;5007408;28;9115;-68
2022/12/30 07:36:13;;;;;;;;;62.20;53.00;;;;;20.93;47.27;95303.28;5006953;28;9226;-67
2022/12/30 07:38:40;;;;;;;;;61.00;52.20;;;;;20.89;47.57;95302.63;5006429;28;8907;-68
2022/12/30 07:41:07;;;;;;;;;69.75;59.75;;;;;20.87;47.39;95308.59;5005397;28;8884;-67
2022/12/30 07:43:34;;;;;;;;;60.20;51.80;;;;;20.89;47.30;95308.94;5008634;28;8856;-67
2022/12/30 07:46:05;;;;;;;;;63.00;54.00;;;;;20.93;47.15;95309.63;5007256;28;8862;-68
2022/12/30 07:48:33;;;;;;;;;63.40;53.20;;;;;20.92;47.06;95313.63;5007889;28;8991;-68
2022/12/30 07:51:04;;;;;;;;;63.00;54.20;;;;;20.86;47.29;95327.22;4988793;28;8894;-67
2022/12/30 07:53:31;;;;;;;;;63.00;54.00;;;;;20.90;47.46;95320.81;5006967;28;10505;-68
2022/12/30 07:55:58;;;;;;;;;61.00;53.00;;;;;20.86;47.31;95318.91;4990358;28;10558;-68
2022/12/30 07:58:25;;;;;;;;;70.00;60.00;;;;;20.92;47.33;95312.81;5002183;28;8868;-68
2022/12/30 08:00:52;;;;;;;;;64.00;54.40;;;;;20.90;46.08;95310.50;5000871;28;8882;-67
2022/12/30 08:03:19;;;;;;;;;61.40;53.00;;;;;20.92;43.86;95312.81;5001737;28;8851;-67
2022/12/30 08:05:46;;;;;;;;;71.50;61.50;;;;;20.89;43.10;95324.78;5001612;28;8857;-67
2022/12/30 08:08:13;;;;;;;;;71.25;60.00;;;;;20.89;42.49;95333.09;4999841;28;8834;-67
2022/12/30 08:10:40;;;;;;;;;60.25;52.75;;;;;20.89;41.93;95333.09;5004190;28;8877;-67
2022/12/30 08:13:06;;;;;;;;;70.25;60.25;;;;;20.88;41.55;95328.78;5003700;28;8885;-67
2022/12/30 08:15:33;;;;;;;;;66.25;55.50;;;;;20.89;40.97;95335.88;5001368;28;8838;-67
2022/12/30 08:18:00;;;;;;;;;62.00;53.40;;;;;20.95;40.60;95323.06;5002939;28;8848;-67
2022/12/30 08:20:30;;;;;;;;;69.50;59.50;;;;;20.87;40.67;95330.75;4997564;28;8822;-68
2022/12/30 08:22:57;;;;;;;;;60.25;53.00;;;;;20.89;42.49;95331.09;4994893;28;8870;-68
2022/12/30 08:25:23;;;;;;;;;61.20;53.00;;;;;20.82;43.54;95337.59;5004334;28;8829;-68
2022/12/30 08:27:50;;;;;;;;;62.00;52.20;;;;;20.81;44.84;95338.03;5003629;28;8855;-68
2022/12/30 08:30:17;;;;;;;;;62.40;54.00;;;;;20.81;45.51;95336.03;5001830;28;8876;-66
2022/12/30 08:32:44;;;;;;;;;65.20;54.20;;;;;20.91;45.70;95336.19;5002952;28;8847;-64
2022/12/30 08:35:11;;;;;;;;;63.00;54.20;;;;;20.90;45.93;95340.97;5005742;28;8836;-65
2022/12/30 08:37:37;;;;;;;;;70.50;59.75;;;;;20.97;46.20;95334.47;5005943;28;8918;-66
2022/12/30 08:40:05;;;;;;;;;60.20;52.20;;;;;21.03;46.23;95335.50;5003019;28;8868;-65
2022/12/30 08:42:34;;;;;;;;;71.50;61.25;;;;;20.98;46.47;95338.81;5003659;28;8975;-65
2022/12/30 08:45:01;;;;;;;;;62.20;53.80;;;;;21.00;43.22;95339.13;5002291;28;8882;-66
2022/12/30 08:47:28;;;;;;;;;63.00;54.25;;;;;21.10;38.73;95340.84;4985522;28;8864;-66
2022/12/30 08:49:55;;;;;;;;;69.75;59.75;;;;;21.11;37.22;95350.72;4999377;28;8910;-66
2022/12/30 08:52:22;;;;;;;;;62.25;53.75;;;;;20.91;37.46;95355.59;5000269;28;9774;-67
2022/12/30 08:54:49;;;;;;;;;63.00;54.25;;;;;20.83;37.28;95366.88;4995863;28;8891;-86
2022/12/30 08:57:16;;;;;;;;;63.25;53.75;;;;;20.74;41.02;95368.69;4995091;28;8840;-77
2022/12/30 08:59:42;;;;;;;;;;;;;;;20.67;42.27;95364.88;4995404;28;8854;-71
2022/12/30 09:02:13;;;;;;;;;;;;;;;20.83;42.42;95372.41;4997131;28;7574;-71
2022/12/30 09:04:40;;;;;;;;;;;;;;;20.89;42.63;95367.13;5000216;28;7585;-71
2022/12/30 09:07:07;;;;;;;;;;;;;;;20.93;43.27;95376.16;5000395;28;7646;-71
2022/12/30 09:09:53;;;;;;;;;;;;;;;20.94;44.05;95371.38;5003200;28;7527;-72
2022/12/30 09:12:20;;;;;;;;;;;;;;;20.97;44.47;95378.81;5004785;28;7550;-73
2022/12/30 09:14:47;;;;;;;;;;;;;;;20.93;44.81;95378.91;5002502;28;7574;-73
2022/12/30 09:17:13;;;;;;;;;;;;;;;20.97;44.85;95387.13;5000649;28;7557;-73
2022/12/30 09:19:40;;;;;;;;;;;;;;;20.93;45.14;95390.00;5003181;28;7538;-74
2022/12/30 09:22:07;;;;;;;;;;;;;;;20.95;45.20;95397.88;4999393;28;7562;-73
2022/12/30 09:24:34;;;;;;;;;;;;;;;20.95;45.16;95403.41;4998924;28;7539;-74
2022/12/30 09:27:01;;;;;;;;;;;;;;;20.78;46.35;95405.41;5001449;28;7563;-68
2022/12/30 09:29:27;;;;;;;;;;;;;;;20.82;46.03;95408.88;5000046;28;8059;-70
2022/12/30 09:31:54;;;;;;;;;;;;;;;20.78;47.65;95413.72;5004467;28;7543;-69
2022/12/30 09:34:21;;;;;;;;;;;;;;;20.73;47.48;95416.97;5002924;28;7563;-69
2022/12/30 09:36:48;;;;;;;;;;;;;;;20.89;43.20;95419.00;5004393;28;7547;-67
2022/12/30 09:39:14;;;;;;;;;;;;;;;20.83;44.46;95424.28;5003927;28;7546;-67
2022/12/30 09:45:01;;;;;;;;;;;;;;;20.89;43.98;95430.09;5003562;28;10173;-67
2022/12/30 09:47:34;;;;;;;;;;;;;;;20.92;43.97;95437.53;5005347;28;7559;-67
2022/12/30 09:50:07;;;;;;;;;;;;;;;20.91;43.93;95447.06;4987471;28;7543;-67
2022/12/30 09:52:43;;;;;;;;;;;;;;;20.90;44.22;95448.28;5008842;28;7572;-67
2022/12/30 09:55:14;;;;;;;;;;;;;;;20.90;44.17;95443.50;5002565;28;8795;-67
2022/12/30 09:57:42;;;;;;;;;;;;;;;20.89;44.29;95446.72;5000811;28;7539;-67
2022/12/30 10:00:15;;;;;;;;;;;;;;;20.89;44.29;95446.72;4987452;28;7535;-66
2022/12/30 10:03:00;;;;;;;;;;;;;;;20.89;44.59;95460.59;4999648;28;9355;-67
2022/12/30 10:05:50;;;;;;;;;;;;;;;20.86;44.32;95463.00;5004366;28;11025;-66
2022/12/30 10:08:25;;;;;;;;;;;;;;;20.84;44.61;95465.41;5003641;28;9663;-77
2022/12/30 10:11:10;;;;;;;;;;;;;;;20.80;45.35;95463.94;4998819;28;7588;-67
2022/12/30 10:13:42;;;;;;;;;;;;;;;20.76;45.54;95466.03;5005254;28;7558;-69
2022/12/30 10:16:13;;;;;;;;;;;;;;;20.80;46.96;95472.25;4974515;28;8925;-71
2022/12/30 10:18:51;;;;;;;;;;;;;;;20.84;45.84;95473.72;4994987;28;7542;-73
2022/12/30 10:21:38;;;;;;;;;;;;;;;20.88;45.38;95467.34;4992443;28;7558;-72
2022/12/30 10:24:05;;;;;;;;;;;;;;;20.88;45.13;95481.97;4991871;28;9453;-72
2022/12/30 10:26:40;;;;;;;;;;;;;;;20.84;45.36;95482.03;4974833;28;9527;-72
2022/12/30 10:29:13;;;;;;;;;;;;;;;20.85;45.38;95477.28;4999544;28;7563;-73
2022/12/30 10:31:40;;;;;;;;;;;;;;;20.88;45.21;95484.72;4991925;28;7578;-71
2022/12/30 10:34:12;;;;;;;;;;;;;;;20.87;45.10;95472.09;4997928;28;8046;-69
2022/12/30 10:36:39;;;;;;;;;;;;;;;20.84;45.25;95473.72;4998002;28;7797;-68
2022/12/30 10:39:17;;;;;;;;;;;;;;;20.86;45.47;95467.75;4998984;28;7550;-70
2022/12/30 10:42:02;;;;;;;;;;;;;;;20.85;42.63;95471.75;4997488;28;7550;-71
2022/12/30 10:44:33;;;;;;;;;;;;;;;20.81;43.88;95468.28;4999590;28;7575;-70
2022/12/30 10:47:06;;;;;;;;;;;;;;;20.79;43.83;95473.47;5004046;28;8375;-71
2022/12/30 10:49:42;;;;;;;;;;;;;;;20.78;41.22;95469.91;5003514;28;7867;-70
2022/12/30 10:52:10;;;;;;;;;;;;;;;20.77;42.13;95468.34;5002187;28;7570;-70
2022/12/30 10:54:37;;;;;;;;;;;;;;;20.72;43.18;95463.31;5004311;28;7555;-70
2022/12/30 10:57:03;;;;;;;;;;;;;;;20.73;43.43;95458.53;5004832;28;7537;-68
2022/12/30 10:59:31;;;;;;;;;;;;;;;20.73;43.92;95464.06;5000829;28;7617;-74
2022/12/30 11:02:12;;;;;;;;;;;;;;;20.72;44.05;95457.78;5003055;28;7550;-70
2022/12/30 11:04:40;;;;;;;;;;;;;;;20.72;44.27;95460.53;4998410;28;8180;-72
2022/12/30 11:07:10;;;;;;;;;;;;;;;20.73;44.45;95469.63;5000113;28;7555;-71
2022/12/30 11:09:37;;;;;;;;;;;;;;;20.74;44.54;95462.91;5001784;28;7567;-72
2022/12/30 11:15:15;;;;;;;;;;;;;;;20.73;44.69;95472.38;5001175;28;7547;-71
2022/12/30 11:18:02;;;;;;;;;;;;;;;20.74;44.67;95466.44;4984626;28;7963;-74
2022/12/30 11:20:29;;;;;;;;;;;;;;;20.74;44.87;95477.53;5001448;28;7535;-74
2022/12/30 11:22:56;;;;;;;;;;;;;;;20.73;44.91;95478.72;5001885;28;8921;-74
2022/12/30 11:25:23;;;;;;;;;;;;;;;20.73;44.99;95477.94;5000937;28;7562;-77
2022/12/30 11:27:53;;;;;;;;;;;;;;;20.71;45.11;95478.38;4999968;28;7547;-74
2022/12/30 11:30:29;;;;;;;;;;;;;;;20.73;45.09;95481.50;5004201;28;7539;-75
2022/12/30 11:32:57;;;;;;;;;;;;;;;20.73;45.12;95475.16;5002650;28;8853;-74
2022/12/30 11:35:41;;;;;;;;;;;;;;;20.72;45.95;95474.38;5008588;28;8695;-72
2022/12/30 11:38:29;;;;;;;;;;;;;;;20.67;46.09;95474.88;5003045;28;7732;-69
2022/12/30 11:40:56;;;;;;;;;;;;;;;20.80;44.72;95472.25;5000755;28;7549;-71
2022/12/30 11:43:23;;;;;;;;;;;;;;;20.80;43.06;95463.94;4984346;28;7562;-72
2022/12/30 11:45:59;;;;;;;;;;;;;;;20.81;41.20;95468.28;5001437;28;7570;-75
2022/12/30 11:48:52;;;;;;;;;;;;;;;20.78;40.56;95455.28;4998782;28;7538;-70
2022/12/30 11:51:30;;;;;;;;;;;;;;;20.73;39.96;95453.00;4997492;28;7551;-73
2022/12/30 11:54:05;;;;;;;;;;;;;;;20.70;40.87;95449.88;4999819;28;7575;-73
2022/12/30 11:56:32;;;;;;;;;;;;;;;20.78;41.69;95453.28;4978349;28;7581;-73
2022/12/30 11:59:05;;;;;;;;;;;;;;;20.80;42.11;95448.09;5000790;28;7551;-72
2022/12/30 12:01:40;;;;;;;;;;;;;;;20.78;42.81;95439.44;4999753;28;8003;-73
2022/12/30 12:04:28;;;;;;;;;;;;;;;20.77;43.56;95440.66;5000401;28;7554;-73
2022/12/30 12:07:00;;;;;;;;;;;;;;;20.78;43.64;95447.75;5005396;28;7638;-76
2022/12/30 12:09:31;;;;;;;;;;;;;;;20.73;43.91;95450.22;5006012;28;7575;-74
2022/12/30 12:12:00;;;;;;;;;;;;;;;20.71;43.96;95443.13;5004515;28;7546;-72
2022/12/30 12:14:32;;;;;;;;;;;;;;;20.69;44.30;95456.63;5005480;28;7559;-76
2022/12/30 12:17:03;;;;;;;;;;;;;;;20.68;44.29;95445.97;5003281;28;7589;-71
2022/12/30 12:19:42;;;;;;;;;;;;;;;20.69;44.74;95442.00;5003338;28;7597;-73
2022/12/30 12:22:31;;;;;;;;;;;;;;;20.67;45.05;95428.59;5004226;28;7542;-71
2022/12/30 12:25:05;;;;;;;;;;;;;;;20.71;45.47;95428.50;5005775;28;7534;-71
2022/12/30 12:27:32;;;;;;;;;;;;;;;20.62;45.85;95420.78;5005402;28;7954;-73
2022/12/30 12:29:58;;;;;;;;;;;;;;;20.61;46.27;95423.97;5003342;28;7987;-69
2022/12/30 12:32:42;;;;;;;;;;;;;;;20.53;46.76;95415.84;5005850;28;7554;-73
2022/12/30 12:35:15;;;;;;;;;;;;;;;20.59;46.83;95420.84;5001416;28;7599;-72
2022/12/30 12:37:50;;;;;;;;;;;;;;;20.53;46.98;95421.38;5007249;28;7526;-75
2022/12/30 12:40:17;;;;;;;;;;;;;;;20.59;46.78;95413.34;5002443;28;7632;-73
2022/12/30 12:42:53;;;;;;;;;;;;;;;20.60;47.36;95419.66;5001553;28;7547;-73
2022/12/30 12:45:33;;;;;;;;;;;;;;;20.49;47.77;95417.91;5001663;28;8187;-70
2022/12/30 12:48:19;;;;;;;;;;;;;;;20.53;47.99;95409.50;5003794;28;7538;-70
2022/12/30 12:50:55;;;;;;;;;;;;;;;20.53;47.74;95407.53;5002663;28;7547;-72
2022/12/30 12:53:24;;;;;;;;;;;;;;;20.63;47.20;95404.94;5006312;28;7573;-70
2022/12/30 12:56:11;;;;;;;;;;;;;;;20.65;47.11;95399.72;5003967;28;7601;-70
2022/12/30 12:59:04;;;;;;;;;;;;;;;20.67;46.93;95395.34;5005928;28;7554;-71
2022/12/30 13:01:35;;;;;;;;;;;;;;;20.72;46.75;95391.28;5001379;28;7589;-71
2022/12/30 13:04:02;;;;;;;;;;;;;;;20.71;47.02;95387.72;4998535;28;7592;-72
2022/12/30 13:06:46;;;;;;;;;;;;;;;20.73;47.22;95387.28;5000454;28;9109;-69
2022/12/30 13:09:32;;;;;;;;;;;;;;;20.74;47.30;95379.78;4996608;28;7542;-67
2022/12/30 13:12:04;;;;;;;;;;;;;;;20.74;47.74;95372.22;4999795;28;7546;-69
2022/12/30 13:14:40;;;;;;;;;;;;;;;20.79;47.62;95371.72;5000800;28;7581;-69
2022/12/30 13:17:13;;;;;;;;;;;;;;;20.81;47.22;95372.06;5001943;28;7535;-69
2022/12/30 13:19:41;;;;;;;;;;;;;;;20.81;47.27;95374.81;4996302;28;7563;-69
2022/12/30 13:22:11;;;;;;;;;;;;;;;20.82;47.29;95379.16;4994092;28;7609;-67
2022/12/30 13:24:44;;;;;;;;;;;;;;;20.83;47.35;95379.97;5000347;28;7550;-67
2022/12/30 13:27:25;;;;;;;;;;;;;;;20.83;47.08;95377.94;4995442;28;7598;-69
2022/12/30 13:29:53;;;;;;;;;;;;;;;20.84;47.28;95381.53;4991927;28;7555;-69
2022/12/30 13:32:30;;;;;;;;;;;;;;;20.84;47.10;95370.44;4997680;28;7566;-69
2022/12/30 13:35:26;;;;;;;;;;;;;;;20.84;47.21;95371.19;4995675;28;7553;-68
2022/12/30 13:37:59;;;;;;;;;;;;;;;20.85;47.16;95366.44;4975702;28;7554;-69
2022/12/30 13:40:30;;;;;;;;;;;;;;;20.86;47.02;95368.00;4995181;28;7558;-70
2022/12/30 13:43:09;;;;;;;;;;;;;;;20.85;47.09;95367.22;4994697;28;7570;-69
2022/12/30 13:45:42;;;;;;;;;;;;;;;20.84;47.14;95373.97;4996595;28;7550;-69
2022/12/30 13:48:12;;;;;;;;;;;;;;;20.86;47.06;95374.31;4993378;28;7563;-68
2022/12/30 13:50:40;;;;;;;;;;;;;;;20.87;47.24;95369.56;4995720;28;7543;-68
2022/12/30 13:53:26;;;;;;;;;;;;;;;20.86;47.08;95365.22;4995470;28;7575;-68
2022/12/30 13:55:53;;;;;;;;;;;;;;;20.87;46.90;95366.78;4972345;28;7645;-67
2022/12/30 13:58:23;;;;;;;;;;;;;;;20.88;47.09;95365.56;4998276;28;7543;-68